createdAt,value
2022-08-10T00:00:21.325Z,39.59
2022-08-10T00:01:21.408Z,39.59
2022-08-10T00:02:21.377Z,39.59
2022-08-10T00:03:21.382Z,39.59
2022-08-10T00:04:22.320Z,39.59
2022-08-10T00:05:21.402Z,39.59
2022-08-10T00:06:21.426Z,39.59
2022-08-10T00:07:21.445Z,39.59
2022-08-10T00:08:24.096Z,39.59
2022-08-10T00:09:21.476Z,39.59
2022-08-10T00:10:21.453Z,39.59
2022-08-10T00:11:21.474Z,39.59
2022-08-10T00:12:21.487Z,39.59
2022-08-10T00:13:21.522Z,39.59
2022-08-10T00:14:21.545Z,39.59
2022-08-10T00:15:52.266Z,39.69
2022-08-10T00:16:21.551Z,39.59
2022-08-10T00:17:21.567Z,39.59
2022-08-10T00:18:34.407Z,39.59
2022-08-10T00:19:21.611Z,39.59
2022-08-10T00:20:21.620Z,39.59
2022-08-10T00:21:21.641Z,39.59
2022-08-10T00:22:21.659Z,39.69
2022-08-10T00:23:21.724Z,39.69
2022-08-10T00:24:21.688Z,39.69
2022-08-10T00:25:21.712Z,39.69
2022-08-10T00:26:22.042Z,39.69
2022-08-10T00:27:47.025Z,39.69
2022-08-10T00:28:21.775Z,39.69
2022-08-10T00:29:21.776Z,39.69
2022-08-10T00:30:21.792Z,39.69
2022-08-10T00:31:21.817Z,39.69
2022-08-10T00:32:21.858Z,39.69
2022-08-10T00:33:21.823Z,39.69
2022-08-10T00:34:21.833Z,39.69
2022-08-10T00:35:21.856Z,39.69
2022-08-10T00:36:21.892Z,39.69
2022-08-10T00:37:21.893Z,39.69
2022-08-10T00:38:21.922Z,39.69
2022-08-10T00:39:21.936Z,39.69
2022-08-10T00:40:37.918Z,39.69
2022-08-10T00:41:21.932Z,39.69
2022-08-10T00:42:21.921Z,39.79
2022-08-10T00:43:23.525Z,39.79
2022-08-10T00:44:21.915Z,39.79
2022-08-10T00:45:21.935Z,39.69
2022-08-10T00:46:21.969Z,39.79
2022-08-10T00:47:37.025Z,39.79
2022-08-10T00:48:21.990Z,39.79
2022-08-10T00:49:22.013Z,39.79
2022-08-10T00:50:22.036Z,39.79
2022-08-10T00:51:22.088Z,39.79
2022-08-10T00:52:22.093Z,39.79
2022-08-10T00:53:22.109Z,39.79
2022-08-10T00:54:24.774Z,39.79
2022-08-10T00:55:22.144Z,39.79
2022-08-10T00:57:14.353Z,39.79
2022-08-10T00:57:22.152Z,39.79
2022-08-10T00:58:22.152Z,39.79
2022-08-10T00:59:22.169Z,39.79
2022-08-10T01:00:22.223Z,39.79
2022-08-10T01:02:07.329Z,39.79
2022-08-10T01:02:22.273Z,39.79
2022-08-10T01:04:54.234Z,39.89
2022-08-10T01:04:58.767Z,39.79
2022-08-10T01:05:22.279Z,39.89
2022-08-10T01:06:22.315Z,39.89
2022-08-10T01:07:22.340Z,39.89
2022-08-10T01:08:22.321Z,39.79
2022-08-10T01:09:22.332Z,39.89
2022-08-10T01:10:22.346Z,39.89
2022-08-10T01:12:38.780Z,39.91
2022-08-10T01:12:38.820Z,39.89
2022-08-10T01:13:22.421Z,39.89
2022-08-10T01:14:22.441Z,39.89
2022-08-10T01:15:22.473Z,39.89
2022-08-10T01:16:22.472Z,39.89
2022-08-10T01:17:22.487Z,39.89
2022-08-10T01:18:22.497Z,39.91
2022-08-10T01:19:22.534Z,39.89
2022-08-10T01:20:30.368Z,39.89
2022-08-10T01:21:22.525Z,39.91
2022-08-10T01:22:22.565Z,39.91
2022-08-10T01:23:22.587Z,39.91
2022-08-10T01:24:25.217Z,39.91
2022-08-10T01:25:22.636Z,39.91
2022-08-10T01:26:30.649Z,39.91
2022-08-10T01:27:27.040Z,39.91
2022-08-10T01:28:22.681Z,39.91
2022-08-10T01:29:22.722Z,39.91
2022-08-10T01:30:22.680Z,39.91
2022-08-10T01:31:22.685Z,39.91
2022-08-10T01:32:22.697Z,39.91
2022-08-10T01:33:58.082Z,39.91
2022-08-10T01:34:22.765Z,40.01
2022-08-10T01:35:22.779Z,40.01
2022-08-10T01:36:32.007Z,40.01
2022-08-10T01:37:22.775Z,40.01
2022-08-10T01:38:22.797Z,40.01
2022-08-10T01:39:22.898Z,40.01
2022-08-10T01:40:22.837Z,40.01
2022-08-10T01:41:22.856Z,40.01
2022-08-10T01:42:22.874Z,40.01
2022-08-10T01:43:22.850Z,40.01
2022-08-10T01:44:22.864Z,40.01
2022-08-10T01:45:22.849Z,40.01
2022-08-10T01:46:22.830Z,40.01
2022-08-10T01:47:23.591Z,40.01
2022-08-10T01:48:22.885Z,40.01
2022-08-10T01:49:22.904Z,40.01
2022-08-10T01:50:22.936Z,40.01
2022-08-10T01:51:22.955Z,40.01
2022-08-10T01:52:22.987Z,40.01
2022-08-10T01:53:23.025Z,40.01
2022-08-10T01:54:23.044Z,40.01
2022-08-10T01:55:23.077Z,40.01
2022-08-10T01:56:23.072Z,40.01
2022-08-10T01:57:23.089Z,40.11
2022-08-10T01:58:23.113Z,40.01
2022-08-10T01:59:23.128Z,40.11
2022-08-10T02:00:23.148Z,40.11
2022-08-10T02:01:23.232Z,40.01
2022-08-10T02:02:23.199Z,40.11
2022-08-10T02:03:23.216Z,40.11
2022-08-10T02:04:23.241Z,40.11
2022-08-10T02:05:23.215Z,40.11
2022-08-10T02:06:23.242Z,40.11
2022-08-10T02:07:23.251Z,40.11
2022-08-10T02:08:23.291Z,40.11
2022-08-10T02:09:23.313Z,40.11
2022-08-10T02:10:23.323Z,40.11
2022-08-10T02:11:23.335Z,40.11
2022-08-10T02:12:23.330Z,40.11
2022-08-10T02:13:23.358Z,40.11
2022-08-10T02:14:23.407Z,40.11
2022-08-10T02:15:23.397Z,40.11
2022-08-10T02:16:23.369Z,40.11
2022-08-10T02:17:59.747Z,40.11
2022-08-10T02:18:23.391Z,40.11
2022-08-10T02:19:23.420Z,40.11
2022-08-10T02:20:23.409Z,40.11
2022-08-10T02:21:23.432Z,40.11
2022-08-10T02:22:36.446Z,40.20
2022-08-10T02:23:23.466Z,40.20
2022-08-10T02:24:23.497Z,40.11
2022-08-10T02:25:40.901Z,40.11
2022-08-10T02:26:23.547Z,40.20
2022-08-10T02:27:23.587Z,40.11
2022-08-10T02:28:29.268Z,40.11
2022-08-10T02:29:23.590Z,40.20
2022-08-10T02:30:23.634Z,40.20
2022-08-10T02:31:23.647Z,40.20
2022-08-10T02:32:35.902Z,40.20
2022-08-10T02:33:23.671Z,40.20
2022-08-10T02:34:23.663Z,40.20
2022-08-10T02:35:23.749Z,40.20
2022-08-10T02:36:27.434Z,40.20
2022-08-10T02:37:23.751Z,40.20
2022-08-10T02:38:58.686Z,40.20
2022-08-10T02:39:23.845Z,40.20
2022-08-10T02:45:13.776Z,40.20
2022-08-10T02:45:15.100Z,40.20
2022-08-10T02:45:21.566Z,40.20
2022-08-10T02:45:23.749Z,40.20
2022-08-10T02:45:27.427Z,40.20
2022-08-10T02:45:30.833Z,40.20
2022-08-10T02:46:23.896Z,40.20
2022-08-10T02:47:23.868Z,40.20
2022-08-10T02:48:23.880Z,40.20
2022-08-10T02:49:23.887Z,40.20
2022-08-10T02:50:23.904Z,40.20
2022-08-10T02:52:07.075Z,40.20
2022-08-10T02:52:23.964Z,40.20
2022-08-10T02:53:56.108Z,40.20
2022-08-10T02:54:23.950Z,40.20
2022-08-10T02:55:26.952Z,40.20
2022-08-10T02:56:23.976Z,40.20
2022-08-10T02:57:23.967Z,40.20
2022-08-10T02:58:23.981Z,40.20
2022-08-10T02:59:24.014Z,40.20
2022-08-10T03:00:24.022Z,40.31
2022-08-10T03:01:24.104Z,40.31
2022-08-10T03:02:24.036Z,40.31
2022-08-10T03:03:24.070Z,40.31
2022-08-10T03:04:56.043Z,40.31
2022-08-10T03:05:24.120Z,40.31
2022-08-10T03:06:24.129Z,40.31
2022-08-10T03:07:43.399Z,40.31
2022-08-10T03:08:24.185Z,40.31
2022-08-10T03:09:24.200Z,40.31
2022-08-10T03:10:24.208Z,40.31
2022-08-10T03:12:35.281Z,40.31
2022-08-10T03:12:38.415Z,40.31
2022-08-10T03:13:24.253Z,40.31
2022-08-10T03:14:24.295Z,40.31
2022-08-10T03:15:24.274Z,40.31
2022-08-10T03:16:24.282Z,40.31
2022-08-10T03:17:24.297Z,40.31
2022-08-10T03:18:24.343Z,40.31
2022-08-10T03:20:33.595Z,40.31
2022-08-10T03:20:35.902Z,40.31
2022-08-10T03:21:24.382Z,40.31
2022-08-10T03:22:24.357Z,40.31
2022-08-10T03:23:24.395Z,40.31
2022-08-10T03:24:33.296Z,40.31
2022-08-10T03:25:24.425Z,40.31
2022-08-10T03:26:24.405Z,40.31
2022-08-10T03:27:24.441Z,40.31
2022-08-10T03:28:24.456Z,40.31
2022-08-10T03:29:24.470Z,40.31
2022-08-10T03:30:32.487Z,40.41
2022-08-10T03:31:24.536Z,40.41
2022-08-10T03:32:24.553Z,40.41
2022-08-10T03:33:24.577Z,40.41
2022-08-10T03:34:33.462Z,40.41
2022-08-10T03:35:24.625Z,40.41
2022-08-10T03:36:40.493Z,40.41
2022-08-10T03:37:24.629Z,40.41
2022-08-10T03:38:24.667Z,40.41
2022-08-10T03:39:24.714Z,40.41
2022-08-10T03:40:24.715Z,40.41
2022-08-10T03:41:24.718Z,40.41
2022-08-10T03:42:24.720Z,40.41
2022-08-10T03:43:24.747Z,40.41
2022-08-10T03:44:24.777Z,40.41
2022-08-10T03:45:24.788Z,40.41
2022-08-10T03:46:24.812Z,40.41
2022-08-10T03:47:24.819Z,40.41
2022-08-10T03:48:42.477Z,40.41
2022-08-10T03:49:24.868Z,40.41
2022-08-10T03:50:27.985Z,40.41
2022-08-10T03:51:24.912Z,40.41
2022-08-10T03:52:24.942Z,40.41
2022-08-10T03:54:04.307Z,40.41
2022-08-10T03:54:24.958Z,40.41
2022-08-10T03:56:27.331Z,40.41
2022-08-10T03:56:29.625Z,40.41
2022-08-10T03:57:24.997Z,40.41
2022-08-10T03:58:25.017Z,40.41
2022-08-10T03:59:25.035Z,40.41
2022-08-10T04:00:25.062Z,40.52
2022-08-10T04:02:44.075Z,40.52
2022-08-10T04:02:44.769Z,40.52
2022-08-10T04:03:25.112Z,40.52
2022-08-10T04:04:25.926Z,40.52
2022-08-10T04:05:25.117Z,40.52
2022-08-10T04:06:25.137Z,40.52
2022-08-10T04:07:25.181Z,40.52
2022-08-10T04:08:25.202Z,40.52
2022-08-10T04:09:42.673Z,40.42
2022-08-10T04:10:25.255Z,40.52
2022-08-10T04:11:25.268Z,40.52
2022-08-10T04:12:25.298Z,40.50
2022-08-10T04:13:25.355Z,40.52
2022-08-10T04:14:47.517Z,40.52
2022-08-10T04:15:25.373Z,40.52
2022-08-10T04:16:25.380Z,40.50
2022-08-10T04:18:04.982Z,40.50
2022-08-10T04:18:25.415Z,40.50
2022-08-10T04:19:25.447Z,40.50
2022-08-10T04:20:25.477Z,40.52
2022-08-10T04:21:25.503Z,40.52
2022-08-10T04:22:25.538Z,40.50
2022-08-10T04:23:25.562Z,40.52
2022-08-10T04:24:29.763Z,40.52
2022-08-10T04:25:25.613Z,40.52
2022-08-10T04:26:25.610Z,40.52
2022-08-10T04:27:25.634Z,40.52
2022-08-10T04:28:25.690Z,40.52
2022-08-10T04:29:25.661Z,40.52
2022-08-10T04:30:27.929Z,40.50
2022-08-10T04:31:25.694Z,40.52
2022-08-10T04:32:25.723Z,40.52
2022-08-10T04:33:25.739Z,40.52
2022-08-10T04:34:25.724Z,40.52
2022-08-10T04:35:25.741Z,40.50
2022-08-10T04:36:25.784Z,40.50
2022-08-10T04:37:25.805Z,40.50
2022-08-10T04:38:25.813Z,40.50
2022-08-10T04:39:25.914Z,40.52
2022-08-10T04:40:30.294Z,40.50
2022-08-10T04:41:25.854Z,40.50
2022-08-10T04:42:25.936Z,40.52
2022-08-10T04:43:25.880Z,40.50
2022-08-10T04:44:25.881Z,40.52
2022-08-10T04:45:48.793Z,40.52
2022-08-10T04:46:42.761Z,40.52
2022-08-10T04:47:57.282Z,40.52
2022-08-10T04:48:40.444Z,40.52
2022-08-10T04:49:55.096Z,40.50
2022-08-10T04:50:25.967Z,40.50
2022-08-10T04:51:26.011Z,40.52
2022-08-10T04:52:26.025Z,40.50
2022-08-10T04:53:26.049Z,40.50
2022-08-10T04:54:26.071Z,40.50
2022-08-10T04:55:26.068Z,40.50
2022-08-10T04:56:31.491Z,40.50
2022-08-10T04:57:26.130Z,40.50
2022-08-10T04:58:26.153Z,40.50
2022-08-10T04:59:26.165Z,40.50
2022-08-10T05:02:29.007Z,40.50
2022-08-10T05:02:52.131Z,40.50
2022-08-10T05:04:36.055Z,40.50
2022-08-10T05:04:52.132Z,40.50
2022-08-10T05:05:52.842Z,40.50
2022-08-10T05:06:52.161Z,40.41
2022-08-10T05:07:54.224Z,40.41
2022-08-10T05:08:52.177Z,40.41
2022-08-10T05:10:01.735Z,40.41
2022-08-10T05:10:52.216Z,40.41
2022-08-10T05:11:52.456Z,40.41
2022-08-10T05:12:52.224Z,40.41
2022-08-10T05:13:52.264Z,40.41
2022-08-10T05:14:52.263Z,40.41
2022-08-10T05:15:52.258Z,40.41
2022-08-10T05:16:52.282Z,40.50
2022-08-10T05:18:03.333Z,40.41
2022-08-10T05:18:52.322Z,40.41
2022-08-10T05:20:04.853Z,40.41
2022-08-10T05:20:52.324Z,40.41
2022-08-10T05:22:03.025Z,40.41
2022-08-10T05:22:52.364Z,40.41
2022-08-10T05:23:52.399Z,40.41
2022-08-10T05:24:52.419Z,40.50
2022-08-10T05:25:52.442Z,40.41
2022-08-10T05:26:55.294Z,40.41
2022-08-10T05:27:52.651Z,40.41
2022-08-10T05:28:52.509Z,40.41
2022-08-10T05:30:01.275Z,40.41
2022-08-10T05:30:52.753Z,40.41
2022-08-10T05:31:52.579Z,40.41
2022-08-10T05:32:59.166Z,40.41
2022-08-10T05:33:52.612Z,40.41
2022-08-10T05:34:52.623Z,40.41
2022-08-10T05:35:57.555Z,40.41
2022-08-10T05:36:52.666Z,40.41
2022-08-10T05:38:12.871Z,40.50
2022-08-10T05:38:52.726Z,40.50
2022-08-10T05:39:52.854Z,40.50
2022-08-10T05:40:52.729Z,40.50
2022-08-10T05:41:53.106Z,40.41
2022-08-10T05:42:52.765Z,40.41
2022-08-10T05:43:52.788Z,40.50
2022-08-10T05:44:52.774Z,40.41
2022-08-10T05:46:16.949Z,40.41
2022-08-10T05:46:52.826Z,40.41
2022-08-10T05:48:54.137Z,40.41
2022-08-10T05:48:59.453Z,40.50
2022-08-10T05:49:52.854Z,40.50
2022-08-10T05:50:52.883Z,40.41
2022-08-10T05:51:52.909Z,40.41
2022-08-10T05:52:52.907Z,40.41
2022-08-10T05:54:01.059Z,40.41
2022-08-10T05:54:52.960Z,40.41
2022-08-10T05:55:52.994Z,40.41
2022-08-10T05:56:58.055Z,40.41
2022-08-10T05:57:53.028Z,40.41
2022-08-10T05:58:53.065Z,40.41
2022-08-10T06:00:31.037Z,40.41
2022-08-10T06:00:53.149Z,40.41
2022-08-10T06:02:32.159Z,40.41
2022-08-10T06:02:53.136Z,40.41
2022-08-10T06:03:53.177Z,40.41
2022-08-10T06:04:53.180Z,40.41
2022-08-10T06:05:53.209Z,40.41
2022-08-10T06:06:53.221Z,40.41
2022-08-10T06:07:53.233Z,40.41
2022-08-10T06:08:53.266Z,40.41
2022-08-10T06:09:59.279Z,40.41
2022-08-10T06:12:26.486Z,40.41
2022-08-10T06:12:26.786Z,40.41
2022-08-10T06:12:56.714Z,40.41
2022-08-10T06:14:12.860Z,40.41
2022-08-10T06:15:00.003Z,40.41
2022-08-10T06:15:53.361Z,40.41
2022-08-10T06:16:53.362Z,40.41
2022-08-10T06:18:02.148Z,40.41
2022-08-10T06:18:53.408Z,40.41
2022-08-10T06:19:53.393Z,40.41
2022-08-10T06:20:53.381Z,40.41
2022-08-10T06:21:54.986Z,40.41
2022-08-10T06:22:53.426Z,40.41
2022-08-10T06:23:53.432Z,40.41
2022-08-10T06:25:23.101Z,40.41
2022-08-10T06:26:11.670Z,40.41
2022-08-10T06:26:53.501Z,40.41
2022-08-10T06:27:53.478Z,40.31
2022-08-10T06:29:03.028Z,40.41
2022-08-10T06:29:53.517Z,40.41
2022-08-10T06:30:53.539Z,40.31
2022-08-10T06:31:53.563Z,40.31
2022-08-10T06:32:53.553Z,40.31
2022-08-10T06:33:53.579Z,40.31
2022-08-10T06:34:53.566Z,40.29
2022-08-10T06:35:53.589Z,40.31
2022-08-10T06:36:53.619Z,40.29
2022-08-10T06:37:53.637Z,40.29
2022-08-10T06:38:53.675Z,40.29
2022-08-10T06:39:53.749Z,40.29
2022-08-10T06:40:53.668Z,40.29
2022-08-10T06:42:15.443Z,40.29
2022-08-10T06:42:53.702Z,40.29
2022-08-10T06:43:53.737Z,40.29
2022-08-10T06:44:53.725Z,40.29
2022-08-10T06:46:07.470Z,40.29
2022-08-10T06:46:53.770Z,40.29
2022-08-10T06:47:53.802Z,40.29
2022-08-10T06:48:53.793Z,40.29
2022-08-10T06:49:53.821Z,40.29
2022-08-10T06:50:58.325Z,40.29
2022-08-10T06:51:57.457Z,40.29
2022-08-10T06:52:53.886Z,40.29
2022-08-10T06:53:55.231Z,40.29
2022-08-10T06:54:53.904Z,40.29
2022-08-10T06:55:56.389Z,40.29
2022-08-10T06:57:16.600Z,40.19
2022-08-10T06:57:59.973Z,40.29
2022-08-10T06:58:53.959Z,40.19
2022-08-10T06:59:53.985Z,40.19
2022-08-10T07:00:54.108Z,40.19
2022-08-10T07:01:53.991Z,40.19
2022-08-10T07:02:54.034Z,40.19
2022-08-10T07:03:54.055Z,40.19
2022-08-10T07:04:54.066Z,40.19
2022-08-10T07:05:54.147Z,40.19
2022-08-10T07:06:54.140Z,40.19
2022-08-10T07:07:54.121Z,40.19
2022-08-10T07:08:54.144Z,40.19
2022-08-10T07:09:54.167Z,40.19
2022-08-10T07:10:54.196Z,40.19
2022-08-10T07:11:54.217Z,40.19
2022-08-10T07:12:54.211Z,40.19
2022-08-10T07:14:17.272Z,40.19
2022-08-10T07:14:54.264Z,40.19
2022-08-10T07:15:59.493Z,40.19
2022-08-10T07:16:54.317Z,40.19
2022-08-10T07:17:54.294Z,40.19
2022-08-10T07:18:54.300Z,40.19
2022-08-10T07:19:54.324Z,40.19
2022-08-10T07:20:54.339Z,40.19
2022-08-10T07:21:58.074Z,40.19
2022-08-10T07:23:01.785Z,40.19
2022-08-10T07:23:59.703Z,40.19
2022-08-10T07:24:54.398Z,40.19
2022-08-10T07:25:54.414Z,40.09
2022-08-10T07:26:54.444Z,40.09
2022-08-10T07:27:59.617Z,40.09
2022-08-10T07:28:54.467Z,40.09
2022-08-10T07:29:54.906Z,40.09
2022-08-10T07:30:54.508Z,40.09
2022-08-10T07:31:57.560Z,40.09
2022-08-10T07:32:54.491Z,40.09
2022-08-10T07:33:54.518Z,40.09
2022-08-10T07:34:54.523Z,40.07
2022-08-10T07:35:54.545Z,40.09
2022-08-10T07:36:54.525Z,40.07
2022-08-10T07:37:54.536Z,40.07
2022-08-10T07:38:54.567Z,40.07
2022-08-10T07:40:03.188Z,40.07
2022-08-10T07:40:54.585Z,40.07
2022-08-10T07:41:54.603Z,40.07
2022-08-10T07:42:54.643Z,40.07
2022-08-10T07:43:54.616Z,40.07
2022-08-10T07:44:54.628Z,39.97
2022-08-10T07:45:54.651Z,39.97
2022-08-10T07:46:54.636Z,39.97
2022-08-10T07:47:55.062Z,39.97
2022-08-10T07:48:54.661Z,39.97
2022-08-10T07:49:54.679Z,39.97
2022-08-10T07:50:54.699Z,39.97
2022-08-10T07:51:55.193Z,39.97
2022-08-10T07:52:54.703Z,39.97
2022-08-10T07:53:54.729Z,39.97
2022-08-10T07:54:54.747Z,39.97
2022-08-10T07:56:07.521Z,39.97
2022-08-10T07:56:54.796Z,39.97
2022-08-10T07:57:54.813Z,39.97
2022-08-10T07:58:54.854Z,39.97
2022-08-10T07:59:54.816Z,39.97
2022-08-10T08:00:54.821Z,39.97
2022-08-10T08:01:54.941Z,39.97
2022-08-10T08:02:54.830Z,39.97
2022-08-10T08:04:05.689Z,39.97
2022-08-10T08:04:54.878Z,39.97
2022-08-10T08:06:02.555Z,39.87
2022-08-10T08:06:54.904Z,39.97
2022-08-10T08:07:54.943Z,39.87
2022-08-10T08:08:54.951Z,39.87
2022-08-10T08:09:58.346Z,39.87
2022-08-10T08:10:54.974Z,39.87
2022-08-10T08:11:54.990Z,39.87
2022-08-10T08:12:55.027Z,39.87
2022-08-10T08:13:55.020Z,39.87
2022-08-10T08:14:55.002Z,39.87
2022-08-10T08:16:18.180Z,39.87
2022-08-10T08:16:55.073Z,39.87
2022-08-10T08:18:00.464Z,39.87
2022-08-10T08:19:25.569Z,39.85
2022-08-10T08:19:55.434Z,39.85
2022-08-10T08:20:55.285Z,39.85
2022-08-10T08:24:05.430Z,39.85
2022-08-10T08:24:07.954Z,39.85
2022-08-10T08:24:31.649Z,39.85
2022-08-10T08:24:55.239Z,39.75
2022-08-10T08:25:55.218Z,39.75
2022-08-10T08:26:55.231Z,39.75
2022-08-10T08:27:55.229Z,39.75
2022-08-10T08:28:55.236Z,39.75
2022-08-10T08:29:55.273Z,39.75
2022-08-10T08:30:55.273Z,39.75
2022-08-10T08:32:01.543Z,39.75
2022-08-10T08:32:55.294Z,39.75
2022-08-10T08:33:55.308Z,39.75
2022-08-10T08:34:55.334Z,39.75
2022-08-10T08:35:55.309Z,39.75
2022-08-10T08:36:59.464Z,39.75
2022-08-10T08:38:34.469Z,39.75
2022-08-10T08:38:55.556Z,39.75
2022-08-10T08:39:55.331Z,39.75
2022-08-10T08:40:55.363Z,39.75
2022-08-10T08:41:55.347Z,39.75
2022-08-10T08:42:55.361Z,39.65
2022-08-10T08:43:55.393Z,39.65
2022-08-10T08:44:55.417Z,39.65
2022-08-10T08:46:00.869Z,39.65
2022-08-10T08:46:59.323Z,39.65
2022-08-10T08:48:05.828Z,39.65
2022-08-10T08:48:55.429Z,39.65
2022-08-10T08:50:08.129Z,39.65
2022-08-10T08:50:57.745Z,39.65
2022-08-10T08:52:07.902Z,39.65
2022-08-10T08:52:55.471Z,39.65
2022-08-10T08:54:01.614Z,39.65
2022-08-10T08:54:55.502Z,39.65
2022-08-10T08:56:05.912Z,39.65
2022-08-10T08:56:55.554Z,39.65
2022-08-10T08:57:55.572Z,39.65
2022-08-10T08:58:55.583Z,39.65
2022-08-10T08:59:55.602Z,39.65
2022-08-10T09:00:55.651Z,39.65
2022-08-10T09:01:55.699Z,39.65
2022-08-10T09:02:55.672Z,39.65
2022-08-10T09:03:55.691Z,39.65
2022-08-10T09:04:55.703Z,39.65
2022-08-10T09:05:59.285Z,39.65
2022-08-10T09:06:55.710Z,39.54
2022-08-10T09:08:00.112Z,39.54
2022-08-10T09:08:55.765Z,39.54
2022-08-10T09:09:55.794Z,39.54
2022-08-10T09:10:55.829Z,39.54
2022-08-10T09:11:55.843Z,39.54
2022-08-10T09:12:55.861Z,39.54
2022-08-10T09:13:55.864Z,39.54
2022-08-10T09:14:55.892Z,39.54
2022-08-10T09:16:00.507Z,39.43
2022-08-10T09:16:55.936Z,39.43
2022-08-10T09:17:55.938Z,39.43
2022-08-10T09:18:55.981Z,39.43
2022-08-10T09:19:56.014Z,39.43
2022-08-10T09:20:56.067Z,39.34
2022-08-10T09:22:13.072Z,39.34
2022-08-10T09:22:57.721Z,39.34
2022-08-10T09:24:04.479Z,39.32
2022-08-10T09:24:56.110Z,39.22
2022-08-10T09:25:56.136Z,39.22
2022-08-10T09:26:56.156Z,39.12
2022-08-10T09:27:56.170Z,39.12
2022-08-10T09:29:11.979Z,39.12
2022-08-10T09:29:56.183Z,39.03
2022-08-10T09:31:22.007Z,39.22
2022-08-10T09:36:16.127Z,39.22
2022-08-10T09:36:16.410Z,39.62
2022-08-10T09:36:22.289Z,40.11
2022-08-10T09:36:24.066Z,40.11
2022-08-10T09:36:28.042Z,39.72
2022-08-10T09:36:56.358Z,40.11
2022-08-10T09:38:01.938Z,40.21
2022-08-10T09:38:56.381Z,40.41
2022-08-10T09:40:56.433Z,40.39
2022-08-10T09:41:03.057Z,40.69
2022-08-10T09:41:56.447Z,41.38
2022-08-10T09:43:14.551Z,41.17
2022-08-10T09:43:56.491Z,41.38
2022-08-10T09:44:58.226Z,41.67
2022-08-10T09:45:56.617Z,41.67
2022-08-10T09:46:56.567Z,42.26
2022-08-10T09:48:01.196Z,42.46
2022-08-10T09:48:56.584Z,42.46
2022-08-10T09:50:00.909Z,42.34
2022-08-10T09:51:34.838Z,42.14
2022-08-10T09:51:57.517Z,42.05
2022-08-10T09:52:59.086Z,41.95
2022-08-10T09:53:56.701Z,41.95
2022-08-10T09:54:57.012Z,42.14
2022-08-10T09:56:18.966Z,41.95
2022-08-10T09:57:07.135Z,42.44
2022-08-10T09:57:56.970Z,42.34
2022-08-10T09:59:26.796Z,42.24
2022-08-10T10:00:00.808Z,42.13
2022-08-10T10:00:56.678Z,42.02
2022-08-10T10:02:03.487Z,42.02
2022-08-10T10:02:56.866Z,42.02
2022-08-10T10:03:56.704Z,41.93
2022-08-10T10:04:56.789Z,41.93
2022-08-10T10:05:57.973Z,41.93
2022-08-10T10:06:56.898Z,41.83
2022-08-10T10:07:56.842Z,41.73
2022-08-10T10:08:58.485Z,41.63
2022-08-10T10:09:57.404Z,41.53
2022-08-10T10:10:56.813Z,41.53
2022-08-10T10:11:57.018Z,41.53
2022-08-10T10:12:56.873Z,41.43
2022-08-10T10:14:02.970Z,41.53
2022-08-10T10:14:56.959Z,41.43
2022-08-10T10:15:56.935Z,41.43
2022-08-10T10:16:56.906Z,41.33
2022-08-10T10:17:57.017Z,41.33
2022-08-10T10:18:57.247Z,41.33
2022-08-10T10:19:57.123Z,41.24
2022-08-10T10:20:56.971Z,41.24
2022-08-10T10:21:57.007Z,41.24
2022-08-10T10:22:57.054Z,41.24
2022-08-10T10:24:21.375Z,41.14
2022-08-10T10:24:56.984Z,41.14
2022-08-10T10:26:01.669Z,41.04
2022-08-10T10:26:56.968Z,41.04
2022-08-10T10:27:57.098Z,40.92
2022-08-10T10:29:24.858Z,40.92
2022-08-10T10:29:59.275Z,40.92
2022-08-10T10:30:57.153Z,40.92
2022-08-10T10:31:57.165Z,40.92
2022-08-10T10:32:58.307Z,40.82
2022-08-10T10:33:57.072Z,40.82
2022-08-10T10:34:57.105Z,40.82
2022-08-10T10:35:57.162Z,40.82
2022-08-10T10:36:57.218Z,40.82
2022-08-10T10:38:10.165Z,40.82
2022-08-10T10:38:57.228Z,40.84
2022-08-10T10:39:57.171Z,40.84
2022-08-10T10:40:57.226Z,40.84
2022-08-10T10:42:04.599Z,40.84
2022-08-10T10:42:57.392Z,40.84
2022-08-10T10:43:57.343Z,40.72
2022-08-10T10:44:57.354Z,40.62
2022-08-10T10:45:57.362Z,40.62
2022-08-10T10:46:57.280Z,40.62
2022-08-10T10:47:57.319Z,40.53
2022-08-10T10:48:57.592Z,40.53
2022-08-10T10:49:57.417Z,40.53
2022-08-10T10:50:57.380Z,40.43
2022-08-10T10:52:00.097Z,40.43
2022-08-10T10:52:57.331Z,40.43
2022-08-10T10:53:57.388Z,40.43
2022-08-10T10:54:57.513Z,40.43
2022-08-10T10:56:15.816Z,40.43
2022-08-10T10:56:57.431Z,40.43
2022-08-10T10:57:59.567Z,40.43
2022-08-10T10:58:57.402Z,40.43
2022-08-10T10:59:57.898Z,40.33
2022-08-10T11:00:57.663Z,40.33
2022-08-10T11:01:57.557Z,40.43
2022-08-10T11:02:57.435Z,40.43
2022-08-10T11:03:57.709Z,40.43
2022-08-10T11:04:57.589Z,40.43
2022-08-10T11:05:57.543Z,40.43
2022-08-10T11:06:57.412Z,40.33
2022-08-10T11:07:57.538Z,40.33
2022-08-10T11:08:57.651Z,40.23
2022-08-10T11:10:05.157Z,40.23
2022-08-10T11:10:58.615Z,40.11
2022-08-10T11:12:00.116Z,40.11
2022-08-10T11:12:57.614Z,40.11
2022-08-10T11:14:25.225Z,40.01
2022-08-10T11:14:57.964Z,40.01
2022-08-10T11:15:57.576Z,40.01
2022-08-10T11:16:58.605Z,40.01
2022-08-10T11:17:57.672Z,39.92
2022-08-10T11:18:57.677Z,39.92
2022-08-10T11:20:00.264Z,39.92
2022-08-10T11:20:57.650Z,39.92
2022-08-10T11:21:57.571Z,39.92
2022-08-10T11:22:57.579Z,39.81
2022-08-10T11:24:42.676Z,39.81
2022-08-10T11:24:57.549Z,39.81
2022-08-10T11:25:58.739Z,39.81
2022-08-10T11:26:57.644Z,39.72
2022-08-10T11:27:57.611Z,39.72
2022-08-10T11:28:57.623Z,39.72
2022-08-10T11:29:57.596Z,39.70
2022-08-10T11:30:57.643Z,39.60
2022-08-10T11:31:57.598Z,39.60
2022-08-10T11:32:57.748Z,39.60
2022-08-10T11:34:46.490Z,39.60
2022-08-10T11:35:11.829Z,39.60
2022-08-10T11:35:57.614Z,39.60
2022-08-10T11:36:57.576Z,39.60
2022-08-10T11:38:32.769Z,39.60
2022-08-10T11:39:13.863Z,39.50
2022-08-10T11:39:57.773Z,39.50
2022-08-10T11:40:57.600Z,39.50
2022-08-10T11:42:09.451Z,39.50
2022-08-10T11:42:57.602Z,39.50
2022-08-10T11:43:57.690Z,39.50
2022-08-10T11:44:57.656Z,39.50
2022-08-10T11:46:07.255Z,39.50
2022-08-10T11:46:57.708Z,39.50
2022-08-10T11:47:57.704Z,39.50
2022-08-10T11:49:02.131Z,39.50
2022-08-10T11:49:57.644Z,39.50
2022-08-10T11:50:57.686Z,39.50
2022-08-10T11:51:57.655Z,39.50
2022-08-10T11:52:57.669Z,39.40
2022-08-10T11:53:57.681Z,39.50
2022-08-10T11:54:57.643Z,39.40
2022-08-10T11:55:57.710Z,39.40
2022-08-10T11:57:02.200Z,39.40
2022-08-10T11:57:57.683Z,39.40
2022-08-10T11:58:57.738Z,39.40
2022-08-10T11:59:59.141Z,39.40
2022-08-10T12:00:57.730Z,39.40
2022-08-10T12:01:57.747Z,39.40
2022-08-10T12:02:57.846Z,39.40
2022-08-10T12:03:57.821Z,39.40
2022-08-10T12:04:57.793Z,39.40
2022-08-10T12:05:57.797Z,39.31
2022-08-10T12:06:57.799Z,39.31
2022-08-10T12:10:06.058Z,39.31
2022-08-10T12:10:09.138Z,39.31
2022-08-10T12:10:10.825Z,39.31
2022-08-10T12:10:57.894Z,39.31
2022-08-10T12:11:57.906Z,39.31
2022-08-10T12:12:57.937Z,39.31
2022-08-10T12:14:19.583Z,39.31
2022-08-10T12:14:57.937Z,39.31
2022-08-10T12:16:02.085Z,39.31
2022-08-10T12:16:58.021Z,39.31
2022-08-10T12:17:57.968Z,39.31
2022-08-10T12:18:57.969Z,39.40
2022-08-10T12:20:01.136Z,39.50
2022-08-10T12:20:57.998Z,39.50
2022-08-10T12:22:02.217Z,39.50
2022-08-10T12:22:58.069Z,39.62
2022-08-10T12:24:02.617Z,39.62
2022-08-10T12:24:58.200Z,39.62
2022-08-10T12:25:58.737Z,39.72
2022-08-10T12:26:58.068Z,39.72
2022-08-10T12:27:58.112Z,39.72
2022-08-10T12:28:58.125Z,39.72
2022-08-10T12:29:58.096Z,39.72
2022-08-10T12:30:58.098Z,39.81
2022-08-10T12:31:58.130Z,39.81
2022-08-10T12:32:58.150Z,39.81
2022-08-10T12:34:02.410Z,39.81
2022-08-10T12:34:58.164Z,39.72
2022-08-10T12:36:17.344Z,39.62
2022-08-10T12:36:58.210Z,39.62
2022-08-10T12:37:58.237Z,39.62
2022-08-10T12:38:58.272Z,39.60
2022-08-10T12:40:23.983Z,39.50
2022-08-10T12:40:58.331Z,39.40
2022-08-10T12:41:58.307Z,39.40
2022-08-10T12:43:01.600Z,39.40
2022-08-10T12:44:07.700Z,39.31
2022-08-10T12:44:58.376Z,39.31
2022-08-10T12:46:01.834Z,39.20
2022-08-10T12:46:58.442Z,39.20
2022-08-10T12:47:58.447Z,39.20
2022-08-10T12:48:58.502Z,39.20
2022-08-10T12:50:29.713Z,39.20
2022-08-10T12:50:58.520Z,39.31
2022-08-10T12:51:58.516Z,39.31
2022-08-10T12:52:58.571Z,39.40
2022-08-10T12:53:58.589Z,39.40